Time;durP1;ratioP1;P1;durP2;ratioP2;P2;SDS_P1;SDS_P2;PMS_P1;PMS_P2;Temp;Humidity;BMP_temperature;BMP_pressure;BME280_temperature;BME280_humidity;BME280_pressure;Samples;Min_cycle;Max_cycle;Signal;HPM_P1;HPM_P2
2023/07/25 00:01:03;;;;;;;8.35;3.10;;;;;;;;;;5006494;28;20058;-72
2023/07/25 00:03:30;;;;;;;7.90;3.05;;;;;;;;;;4994405;28;20052;-73
2023/07/25 00:05:56;;;;;;;6.95;2.90;;;;;;;;;;4992088;28;20517;-73
2023/07/25 00:08:22;;;;;;;6.50;2.80;;;;;;;;;;4973158;28;20497;-73
2023/07/25 00:10:48;;;;;;;6.28;2.90;;;;;;;;;;4983952;28;20050;-72
2023/07/25 00:13:14;;;;;;;4.95;3.00;;;;;;;;;;4977353;28;20137;-73
2023/07/25 00:15:40;;;;;;;7.75;2.97;;;;;;;;;;4963563;28;20046;-73
2023/07/25 00:18:06;;;;;;;4.75;2.70;;;;;;;;;;4971804;28;20038;-73
2023/07/25 00:20:32;;;;;;;5.55;2.53;;;;;;;;;;4989361;28;20042;-73
2023/07/25 00:22:59;;;;;;;5.40;2.53;;;;;;;;;;4985721;28;20043;-73
2023/07/25 00:25:25;;;;;;;5.82;2.70;;;;;;;;;;4974749;28;20050;-73
2023/07/25 00:27:51;;;;;;;7.32;2.53;;;;;;;;;;4998953;28;20096;-73
2023/07/25 00:30:17;;;;;;;4.97;2.80;;;;;;;;;;5009448;28;20054;-73
2023/07/25 00:32:43;;;;;;;6.70;2.63;;;;;;;;;;4998567;28;20145;-73
2023/07/25 00:35:09;;;;;;;8.82;2.90;;;;;;;;;;4994497;28;20035;-73
2023/07/25 00:37:35;;;;;;;9.40;3.10;;;;;;;;;;5005488;28;20060;-73
2023/07/25 00:40:01;;;;;;;8.63;3.20;;;;;;;;;;5011188;28;20085;-73
2023/07/25 00:42:27;;;;;;;7.95;3.30;;;;;;;;;;5011611;28;20041;-73
2023/07/25 00:44:53;;;;;;;9.88;3.55;;;;;;;;;;5011965;28;20054;-72
2023/07/25 00:47:20;;;;;;;11.13;3.47;;;;;;;;;;5009695;28;20394;-73
2023/07/25 00:49:47;;;;;;;9.55;3.20;;;;;;;;;;5012444;28;20048;-73
2023/07/25 00:52:13;;;;;;;10.15;3.30;;;;;;;;;;5005335;28;20053;-72
2023/07/25 00:54:39;;;;;;;8.18;3.08;;;;;;;;;;4997558;28;20402;-72
2023/07/25 00:57:06;;;;;;;9.98;3.28;;;;;;;;;;5009895;28;20088;-73
2023/07/25 00:59:32;;;;;;;8.77;3.20;;;;;;;;;;5010690;28;20515;-73
2023/07/25 01:01:58;;;;;;;8.27;2.90;;;;;;;;;;5010501;28;20046;-73
2023/07/25 01:04:25;;;;;;;11.77;3.10;;;;;;;;;;5011640;28;20473;-73
2023/07/25 01:06:52;;;;;;;8.88;2.97;;;;;;;;;;5008685;28;20046;-73
2023/07/25 01:09:34;;;;;;;11.95;3.47;;;;;;;;;;5006262;28;20121;-72
2023/07/25 01:12:00;;;;;;;8.20;3.00;;;;;;;;;;5002834;28;20046;-72
2023/07/25 01:14:26;;;;;;;9.35;2.97;;;;;;;;;;5005415;28;20497;-73
2023/07/25 01:16:53;;;;;;;9.23;3.15;;;;;;;;;;4997525;28;20042;-73
2023/07/25 01:19:19;;;;;;;5.82;3.03;;;;;;;;;;4997622;28;20541;-72
2023/07/25 01:21:45;;;;;;;7.80;2.78;;;;;;;;;;5008408;28;20045;-72
2023/07/25 01:24:11;;;;;;;7.45;2.80;;;;;;;;;;5005882;28;20049;-73
2023/07/25 01:26:37;;;;;;;8.15;3.10;;;;;;;;;;4997126;28;20482;-72
2023/07/25 01:29:03;;;;;;;9.60;2.80;;;;;;;;;;5000544;28;20064;-73
2023/07/25 01:31:30;;;;;;;10.02;2.80;;;;;;;;;;5005814;28;20038;-72
2023/07/25 01:33:56;;;;;;;10.38;3.08;;;;;;;;;;4998579;28;20190;-72
2023/07/25 01:36:22;;;;;;;7.57;2.80;;;;;;;;;;5000346;28;20069;-72
2023/07/25 01:38:48;;;;;;;9.63;3.10;;;;;;;;;;5001180;28;20046;-72
2023/07/25 01:41:14;;;;;;;8.88;3.05;;;;;;;;;;5000505;28;20050;-73
2023/07/25 01:43:40;;;;;;;6.88;2.90;;;;;;;;;;5007138;28;20049;-72
2023/07/25 01:46:06;;;;;;;15.52;3.83;;;;;;;;;;5010593;28;20073;-73
2023/07/25 01:48:32;;;;;;;5.93;2.60;;;;;;;;;;5007972;28;20061;-73
2023/07/25 01:50:58;;;;;;;8.02;2.70;;;;;;;;;;5010321;28;20482;-73
2023/07/25 01:53:24;;;;;;;7.53;2.90;;;;;;;;;;5009041;28;20049;-73
2023/07/25 01:55:52;;;;;;;7.63;2.85;;;;;;;;;;5013388;28;20295;-72
2023/07/25 01:58:18;;;;;;;8.18;3.00;;;;;;;;;;5013224;28;20045;-72
2023/07/25 02:00:44;;;;;;;11.48;3.90;;;;;;;;;;5013561;28;20046;-72
2023/07/25 02:03:11;;;;;;;7.85;2.80;;;;;;;;;;5013342;28;20077;-73
2023/07/25 02:05:37;;;;;;;11.40;2.78;;;;;;;;;;5011650;28;20438;-72
2023/07/25 02:08:03;;;;;;;9.88;3.00;;;;;;;;;;5014075;28;20605;-72
2023/07/25 02:10:29;;;;;;;7.07;2.63;;;;;;;;;;5013562;28;20045;-72
2023/07/25 02:12:56;;;;;;;15.73;3.10;;;;;;;;;;5011105;28;20049;-72
2023/07/25 02:15:22;;;;;;;7.38;2.97;;;;;;;;;;5004909;28;20065;-72
2023/07/25 02:17:49;;;;;;;10.60;3.20;;;;;;;;;;5005239;28;20108;-72
2023/07/25 02:20:15;;;;;;;9.73;3.17;;;;;;;;;;5004621;28;20110;-72
2023/07/25 02:22:41;;;;;;;8.25;2.63;;;;;;;;;;5000987;28;20486;-73
2023/07/25 02:25:07;;;;;;;7.78;3.10;;;;;;;;;;4996607;28;20038;-73
2023/07/25 02:27:33;;;;;;;6.18;2.75;;;;;;;;;;4995383;28;20054;-72
2023/07/25 02:29:59;;;;;;;12.95;2.80;;;;;;;;;;5003401;28;20393;-73
2023/07/25 02:32:25;;;;;;;10.98;3.13;;;;;;;;;;5004858;28;20046;-73
2023/07/25 02:34:51;;;;;;;7.38;3.03;;;;;;;;;;4996005;28;20045;-73
2023/07/25 02:37:17;;;;;;;10.82;3.33;;;;;;;;;;5007221;28;20127;-72
2023/07/25 02:39:43;;;;;;;7.57;2.97;;;;;;;;;;4995717;28;20498;-73
2023/07/25 02:42:09;;;;;;;7.20;3.17;;;;;;;;;;5010024;28;20129;-72
2023/07/25 02:44:35;;;;;;;12.65;3.17;;;;;;;;;;5007670;28;20042;-73
2023/07/25 02:47:02;;;;;;;8.90;2.72;;;;;;;;;;5011642;28;20087;-72
2023/07/25 02:49:28;;;;;;;12.20;3.05;;;;;;;;;;5012001;28;20042;-73
2023/07/25 02:51:54;;;;;;;10.85;2.95;;;;;;;;;;5009720;28;20144;-73
2023/07/25 02:54:20;;;;;;;7.88;2.83;;;;;;;;;;5012231;28;20050;-73
2023/07/25 02:56:46;;;;;;;7.32;2.83;;;;;;;;;;5013460;28;20041;-73
2023/07/25 02:59:12;;;;;;;11.93;3.95;;;;;;;;;;5013177;28;20046;-72
2023/07/25 03:01:38;;;;;;;5.80;2.47;;;;;;;;;;5009415;28;20457;-73
2023/07/25 03:04:04;;;;;;;7.72;2.50;;;;;;;;;;5011850;28;20469;-73
2023/07/25 03:06:30;;;;;;;8.00;2.50;;;;;;;;;;5010626;28;20042;-73
2023/07/25 03:08:56;;;;;;;5.53;2.25;;;;;;;;;;5008294;28;20045;-73
2023/07/25 03:11:23;;;;;;;8.18;2.75;;;;;;;;;;5009595;28;20076;-73
2023/07/25 03:13:49;;;;;;;7.10;2.33;;;;;;;;;;5010474;28;20050;-73
2023/07/25 03:16:15;;;;;;;6.63;2.60;;;;;;;;;;5010185;28;20109;-73
2023/07/25 03:18:41;;;;;;;8.43;2.88;;;;;;;;;;5010271;28;20136;-72
2023/07/25 03:21:07;;;;;;;3.67;2.20;;;;;;;;;;5011181;28;20088;-73
2023/07/25 03:23:33;;;;;;;10.05;2.45;;;;;;;;;;5011843;28;20060;-73
2023/07/25 03:26:03;;;;;;;8.40;2.55;;;;;;;;;;5008141;28;20121;-72
2023/07/25 03:28:29;;;;;;;9.75;2.58;;;;;;;;;;5024925;28;20124;-73
2023/07/25 03:30:55;;;;;;;8.60;2.30;;;;;;;;;;4994023;28;20042;-73
2023/07/25 03:33:21;;;;;;;3.70;2.05;;;;;;;;;;4993495;28;20050;-72
2023/07/25 03:35:47;;;;;;;9.10;2.75;;;;;;;;;;4994311;28;20046;-73
2023/07/25 03:38:13;;;;;;;9.35;2.80;;;;;;;;;;4998263;28;20153;-73
2023/07/25 03:40:39;;;;;;;7.22;2.60;;;;;;;;;;5011614;28;20121;-72
2023/07/25 03:43:05;;;;;;;5.22;2.60;;;;;;;;;;5012860;28;20491;-73
2023/07/25 03:45:31;;;;;;;7.32;2.50;;;;;;;;;;5012544;28;20751;-73
2023/07/25 03:47:57;;;;;;;6.68;2.50;;;;;;;;;;5013816;28;20140;-73
2023/07/25 03:50:23;;;;;;;10.18;2.55;;;;;;;;;;5012774;28;20132;-73
2023/07/25 03:52:49;;;;;;;8.68;2.10;;;;;;;;;;5006377;28;20049;-73
2023/07/25 03:55:15;;;;;;;7.70;2.30;;;;;;;;;;4992933;28;20792;-73
2023/07/25 03:57:41;;;;;;;7.90;2.65;;;;;;;;;;5010848;28;20494;-73
2023/07/25 04:00:08;;;;;;;5.57;2.38;;;;;;;;;;4994909;28;20061;-73
2023/07/25 04:02:34;;;;;;;7.25;2.47;;;;;;;;;;4993758;28;20116;-72
2023/07/25 04:05:00;;;;;;;8.50;2.13;;;;;;;;;;5012773;28;20398;-73
2023/07/25 04:07:26;;;;;;;4.10;2.03;;;;;;;;;;4994770;28;20045;-73
2023/07/25 04:09:52;;;;;;;5.93;2.35;;;;;;;;;;5011695;28;20057;-73
2023/07/25 04:12:18;;;;;;;3.80;1.98;;;;;;;;;;5027488;28;20045;-73
2023/07/25 04:14:44;;;;;;;10.50;2.20;;;;;;;;;;4990809;28;20037;-73
2023/07/25 04:17:10;;;;;;;7.72;2.47;;;;;;;;;;5005926;28;20398;-73
2023/07/25 04:19:36;;;;;;;6.70;2.08;;;;;;;;;;5006541;28;20577;-73
2023/07/25 04:22:02;;;;;;;3.10;1.98;;;;;;;;;;5010556;28;20120;-73
2023/07/25 04:24:28;;;;;;;6.00;2.25;;;;;;;;;;5010197;28;20073;-73
2023/07/25 04:26:54;;;;;;;6.72;1.92;;;;;;;;;;5010795;28;20042;-73
2023/07/25 04:29:20;;;;;;;7.03;1.85;;;;;;;;;;5006071;28;20100;-73
2023/07/25 04:31:46;;;;;;;6.00;2.05;;;;;;;;;;5026114;28;20137;-73
2023/07/25 04:34:12;;;;;;;6.18;2.10;;;;;;;;;;5005631;28;20486;-73
2023/07/25 04:36:38;;;;;;;4.50;2.30;;;;;;;;;;4999346;28;20042;-73
2023/07/25 04:39:04;;;;;;;11.27;1.95;;;;;;;;;;5002324;28;20081;-73
2023/07/25 04:41:30;;;;;;;3.28;1.63;;;;;;;;;;5011632;28;20042;-73
2023/07/25 04:43:56;;;;;;;6.07;2.00;;;;;;;;;;5002136;28;20438;-73
2023/07/25 04:46:22;;;;;;;6.47;2.03;;;;;;;;;;5007528;28;20054;-73
2023/07/25 04:48:48;;;;;;;5.75;1.80;;;;;;;;;;5011013;28;20037;-73
2023/07/25 04:51:14;;;;;;;5.03;1.65;;;;;;;;;;5008296;28;20049;-73
2023/07/25 04:53:40;;;;;;;5.18;1.63;;;;;;;;;;5010579;28;20045;-73
2023/07/25 04:56:06;;;;;;;1.75;1.55;;;;;;;;;;5009443;28;20482;-73
2023/07/25 04:58:32;;;;;;;4.10;1.50;;;;;;;;;;5010613;28;20556;-73
2023/07/25 05:00:58;;;;;;;3.55;1.70;;;;;;;;;;5010109;28;20045;-73
2023/07/25 05:03:25;;;;;;;3.40;1.48;;;;;;;;;;5010861;28;20395;-72
2023/07/25 05:05:52;;;;;;;4.40;1.77;;;;;;;;;;5006464;28;20042;-72
2023/07/25 05:08:18;;;;;;;5.43;1.95;;;;;;;;;;5009516;28;20400;-72
2023/07/25 05:10:44;;;;;;;5.43;1.88;;;;;;;;;;5004321;28;20064;-72
2023/07/25 05:13:10;;;;;;;4.68;1.70;;;;;;;;;;5008911;28;20034;-72
2023/07/25 05:15:38;;;;;;;6.30;2.05;;;;;;;;;;5007276;28;20040;-73
2023/07/25 05:18:04;;;;;;;3.92;1.80;;;;;;;;;;5005166;28;20170;-73
2023/07/25 05:20:30;;;;;;;7.95;1.92;;;;;;;;;;5004388;28;20060;-72
2023/07/25 05:22:56;;;;;;;5.53;1.60;;;;;;;;;;4996970;28;20096;-72
2023/07/25 05:25:22;;;;;;;5.40;1.58;;;;;;;;;;5009946;28;20089;-72
2023/07/25 05:27:48;;;;;;;6.22;1.77;;;;;;;;;;5004836;28;20117;-72
2023/07/25 05:30:14;;;;;;;3.38;1.60;;;;;;;;;;5008069;28;20056;-72
2023/07/25 05:32:40;;;;;;;6.05;1.90;;;;;;;;;;5011328;28;20061;-72
2023/07/25 05:35:07;;;;;;;6.10;1.90;;;;;;;;;;5011232;28;20038;-72
2023/07/25 05:37:39;;;;;;;5.15;1.70;;;;;;;;;;5011556;28;20053;-72
2023/07/25 05:40:06;;;;;;;5.50;1.88;;;;;;;;;;4999236;28;20050;-72
2023/07/25 05:42:35;;;;;;;2.58;1.60;;;;;;;;;;5012140;28;20077;-73
2023/07/25 05:45:01;;;;;;;4.82;1.83;;;;;;;;;;5015260;28;20042;-72
2023/07/25 05:47:28;;;;;;;5.72;1.70;;;;;;;;;;5014711;28;20108;-73
2023/07/25 05:49:55;;;;;;;2.88;1.80;;;;;;;;;;5012524;28;20077;-72
2023/07/25 05:52:21;;;;;;;4.03;2.28;;;;;;;;;;5017158;28;20049;-72
2023/07/25 05:54:48;;;;;;;2.67;1.65;;;;;;;;;;5011707;28;20419;-72
2023/07/25 05:57:15;;;;;;;6.18;1.90;;;;;;;;;;5003523;28;20061;-72
2023/07/25 05:59:43;;;;;;;2.70;1.92;;;;;;;;;;5012821;28;20046;-72
2023/07/25 06:02:09;;;;;;;6.13;2.00;;;;;;;;;;5011834;28;20050;-72
2023/07/25 06:04:35;;;;;;;4.18;1.90;;;;;;;;;;5012524;28;20435;-72
2023/07/25 06:07:02;;;;;;;6.45;2.13;;;;;;;;;;5011667;28;20092;-73
2023/07/25 06:09:28;;;;;;;5.35;2.15;;;;;;;;;;4991237;28;20060;-72
2023/07/25 06:11:55;;;;;;;5.35;1.90;;;;;;;;;;5012139;28;20088;-72
2023/07/25 06:14:21;;;;;;;2.10;1.80;;;;;;;;;;5011979;28;20064;-72
2023/07/25 06:16:47;;;;;;;5.95;2.45;;;;;;;;;;5010888;28;20042;-72
2023/07/25 06:19:13;;;;;;;5.85;1.90;;;;;;;;;;5012533;28;20770;-72
2023/07/25 06:21:39;;;;;;;3.10;1.70;;;;;;;;;;5011106;28;20045;-72
2023/07/25 06:24:06;;;;;;;3.95;1.73;;;;;;;;;;5013328;28;20049;-72
2023/07/25 06:26:32;;;;;;;6.28;2.05;;;;;;;;;;5011240;28;20160;-72
2023/07/25 06:28:58;;;;;;;6.03;2.13;;;;;;;;;;5011304;28;20038;-72
2023/07/25 06:31:24;;;;;;;5.60;1.77;;;;;;;;;;4995239;28;20065;-72
2023/07/25 06:33:50;;;;;;;8.77;2.17;;;;;;;;;;5010950;28;20399;-72
2023/07/25 06:36:16;;;;;;;5.43;1.80;;;;;;;;;;5013706;28;20045;-72
2023/07/25 06:38:42;;;;;;;4.13;1.90;;;;;;;;;;4995146;28;20057;-72
2023/07/25 06:41:08;;;;;;;3.55;1.83;;;;;;;;;;4995414;28;20449;-72
2023/07/25 06:43:34;;;;;;;2.40;1.83;;;;;;;;;;5014340;28;20064;-72
2023/07/25 06:46:00;;;;;;;5.70;2.05;;;;;;;;;;5013098;28;20053;-72
2023/07/25 06:48:26;;;;;;;3.85;1.70;;;;;;;;;;5013442;28;20044;-72
2023/07/25 06:50:52;;;;;;;3.85;2.00;;;;;;;;;;5012459;28;20049;-72
2023/07/25 06:53:18;;;;;;;4.68;1.80;;;;;;;;;;4996103;28;20052;-72
2023/07/25 06:55:44;;;;;;;5.63;1.88;;;;;;;;;;5013191;28;20133;-72
2023/07/25 06:58:10;;;;;;;4.50;1.90;;;;;;;;;;5011563;28;20038;-72
2023/07/25 07:00:40;;;;;;;4.70;2.00;;;;;;;;;;5013790;28;20042;-72
2023/07/25 07:03:07;;;;;;;4.53;1.70;;;;;;;;;;5012726;28;20488;-72
2023/07/25 07:05:33;;;;;;;8.15;2.15;;;;;;;;;;4995688;28;20049;-72
2023/07/25 07:08:00;;;;;;;6.15;2.03;;;;;;;;;;4996747;28;20042;-72
2023/07/25 07:10:26;;;;;;;6.30;1.83;;;;;;;;;;5011461;28;20041;-72
2023/07/25 07:12:53;;;;;;;5.10;1.77;;;;;;;;;;5011896;28;20038;-73
2023/07/25 07:15:26;;;;;;;3.25;2.10;;;;;;;;;;5010589;28;20042;-72
2023/07/25 07:17:55;;;;;;;5.10;1.90;;;;;;;;;;5014244;28;20112;-72
2023/07/25 07:20:21;;;;;;;7.30;1.88;;;;;;;;;;4994323;28;20517;-72
2023/07/25 07:22:47;;;;;;;3.90;1.73;;;;;;;;;;5013055;28;20038;-72
2023/07/25 07:25:13;;;;;;;5.10;1.90;;;;;;;;;;5012320;28;20038;-72
2023/07/25 07:27:39;;;;;;;4.72;1.70;;;;;;;;;;5011266;28;20136;-72
2023/07/25 07:30:06;;;;;;;4.18;1.98;;;;;;;;;;5010040;28;20050;-72
2023/07/25 07:32:35;;;;;;;7.35;2.22;;;;;;;;;;5010591;28;20061;-72
2023/07/25 07:35:01;;;;;;;4.07;1.85;;;;;;;;;;5010268;28;20045;-72
2023/07/25 07:37:27;;;;;;;6.47;1.85;;;;;;;;;;5009585;28;20457;-72
2023/07/25 07:39:53;;;;;;;6.30;2.03;;;;;;;;;;5009259;28;20803;-72
2023/07/25 07:42:19;;;;;;;6.85;2.20;;;;;;;;;;5010720;28;20667;-72
2023/07/25 07:44:45;;;;;;;6.53;2.25;;;;;;;;;;5010445;28;20517;-72
2023/07/25 07:47:11;;;;;;;8.48;2.00;;;;;;;;;;5009990;28;20470;-72
2023/07/25 07:49:37;;;;;;;6.20;1.98;;;;;;;;;;5010112;28;20041;-72
2023/07/25 07:52:03;;;;;;;2.80;1.80;;;;;;;;;;5010625;28;20493;-72
2023/07/25 07:54:29;;;;;;;3.38;2.00;;;;;;;;;;5008696;28;20042;-72
2023/07/25 07:56:55;;;;;;;6.43;2.00;;;;;;;;;;5010498;28;20504;-72
2023/07/25 07:59:21;;;;;;;4.32;1.60;;;;;;;;;;5010127;28;20049;-72
2023/07/25 08:01:47;;;;;;;5.72;2.97;;;;;;;;;;5010841;28;20100;-72
2023/07/25 08:04:13;;;;;;;5.78;1.98;;;;;;;;;;5012835;28;20099;-72
2023/07/25 08:06:39;;;;;;;5.38;1.98;;;;;;;;;;5008547;28;20050;-72
2023/07/25 08:09:06;;;;;;;6.43;1.85;;;;;;;;;;5003259;28;20114;-72
2023/07/25 08:11:32;;;;;;;6.65;1.88;;;;;;;;;;5012270;28;20429;-72
2023/07/25 08:13:58;;;;;;;7.18;2.30;;;;;;;;;;5006705;28;20485;-73
2023/07/25 08:16:24;;;;;;;4.22;1.70;;;;;;;;;;5009389;28;20053;-72
2023/07/25 08:18:50;;;;;;;3.90;1.70;;;;;;;;;;5009532;28;20042;-72
2023/07/25 08:21:16;;;;;;;5.22;2.20;;;;;;;;;;5011270;28;20042;-72
2023/07/25 08:23:42;;;;;;;3.03;1.77;;;;;;;;;;5010334;28;20082;-72
2023/07/25 08:26:08;;;;;;;3.08;1.60;;;;;;;;;;5007015;28;20081;-72
2023/07/25 08:28:34;;;;;;;4.68;1.73;;;;;;;;;;5011001;28;20429;-72
2023/07/25 08:31:06;;;;;;;4.43;1.80;;;;;;;;;;5009529;28;20162;-72
2023/07/25 08:33:34;;;;;;;4.20;1.83;;;;;;;;;;5012767;28;20057;-72
2023/07/25 08:36:00;;;;;;;3.25;2.03;;;;;;;;;;5010624;28;20088;-72
2023/07/25 08:38:26;;;;;;;5.20;2.10;;;;;;;;;;5006619;28;20058;-72
2023/07/25 08:41:05;;;;;;;6.20;1.90;;;;;;;;;;5023305;28;20811;-72
2023/07/25 08:43:35;;;;;;;3.47;1.70;;;;;;;;;;5009466;28;20045;-72
2023/07/25 08:46:03;;;;;;;3.65;2.00;;;;;;;;;;5008374;28;20069;-73
2023/07/25 08:48:30;;;;;;;4.63;2.00;;;;;;;;;;4997826;28;20164;-72
2023/07/25 08:50:57;;;;;;;8.13;2.40;;;;;;;;;;5009978;28;20046;-71
2023/07/25 08:53:24;;;;;;;5.07;2.33;;;;;;;;;;5008585;28;20045;-72
2023/07/25 08:55:51;;;;;;;4.25;2.17;;;;;;;;;;5010156;28;20038;-72
2023/07/25 08:58:17;;;;;;;9.23;2.45;;;;;;;;;;5010429;28;20042;-72
2023/07/25 09:00:44;;;;;;;6.82;2.20;;;;;;;;;;5009886;28;20037;-72
2023/07/25 09:03:11;;;;;;;4.45;2.25;;;20.20;99.90;;;;;;5007817;28;20133;-72
2023/07/25 09:05:37;;;;;;;6.85;2.30;;;17.80;99.90;;;;;;5004599;28;20496;-72
2023/07/25 09:08:03;;;;;;;4.18;2.22;;;17.80;99.90;;;;;;5009417;28;20042;-73
2023/07/25 09:10:29;;;;;;;5.82;2.30;;;17.50;99.90;;;;;;5006087;28;20053;-73
2023/07/25 09:12:55;;;;;;;5.93;2.05;;;17.80;99.90;;;;;;5003531;28;20063;-72
2023/07/25 09:15:21;;;;;;;4.80;2.00;;;17.60;99.90;;;;;;4999581;28;20088;-72
2023/07/25 09:17:47;;;;;;;9.52;2.22;;;17.70;99.90;;;;;;5008766;28;20385;-72
2023/07/25 09:20:12;;;;;;;7.18;3.05;;;17.60;99.90;;;;;;5008516;28;20030;-72
2023/07/25 09:22:38;;;;;;;3.88;1.90;;;17.70;99.90;;;;;;5011116;28;20464;-72
2023/07/25 09:25:08;;;;;;;3.03;1.75;;;17.80;99.90;;;;;;5010036;28;20081;-72
2023/07/25 09:27:34;;;;;;;6.32;2.30;;;17.70;99.90;;;;;;5003786;28;20062;-72
2023/07/25 09:30:00;;;;;;;5.13;1.95;;;17.80;99.90;;;;;;5007980;28;20073;-72
2023/07/25 09:32:27;;;;;;;3.03;1.73;;;17.90;99.90;;;;;;5008324;28;20085;-72
2023/07/25 09:35:01;;;;;;;3.58;1.70;;;18.10;99.90;;;;;;5011218;28;20100;-72
2023/07/25 09:37:30;;;;;;;7.32;2.10;;;18.20;99.90;;;;;;5009780;28;20051;-80
2023/07/25 09:39:56;;;;;;;3.30;1.70;;;18.40;99.90;;;;;;5006144;28;20049;-72
2023/07/25 09:42:23;;;;;;;3.40;1.90;;;18.60;99.90;;;;;;5010226;28;20037;-72
2023/07/25 09:44:51;;;;;;;6.25;2.30;;;18.70;99.90;;;;;;5010666;28;20109;-72
2023/07/25 09:47:27;;;;;;;3.78;2.10;;;18.70;99.90;;;;;;5008152;28;21480;-73
2023/07/25 09:49:56;;;;;;;2.92;1.95;;;18.80;99.90;;;;;;4992307;28;20061;-72
2023/07/25 09:52:25;;;;;;;1.98;1.55;;;18.80;99.90;;;;;;5002319;28;20046;-72
2023/07/25 09:54:51;;;;;;;3.60;1.60;;;18.90;99.90;;;;;;5009842;28;20045;-73
2023/07/25 09:57:17;;;;;;;3.15;1.67;;;19.00;99.90;;;;;;5011764;28;20034;-73
2023/07/25 09:59:42;;;;;;;4.20;1.92;;;19.00;99.90;;;;;;5008571;28;20070;-73
2023/07/25 10:02:09;;;;;;;3.20;1.75;;;19.10;99.90;;;;;;5010216;28;20042;-72
2023/07/25 10:04:36;;;;;;;4.95;1.55;;;19.20;99.90;;;;;;5008914;28;20042;-72
2023/07/25 10:07:02;;;;;;;4.60;2.00;;;19.30;99.90;;;;;;5010018;28;20506;-72
2023/07/25 10:09:29;;;;;;;2.35;1.80;;;19.30;99.90;;;;;;5008600;28;20042;-72
2023/07/25 10:11:56;;;;;;;1.55;1.42;;;19.20;99.90;;;;;;5011418;28;20046;-72
2023/07/25 10:14:22;;;;;;;3.50;1.60;;;19.30;99.90;;;;;;5012276;28;20052;-72
2023/07/25 10:16:49;;;;;;;2.42;1.63;;;19.30;99.90;;;;;;5010089;28;20371;-73
2023/07/25 10:19:15;;;;;;;3.38;1.60;;;19.20;99.90;;;;;;5013086;28;20072;-72
2023/07/25 10:21:53;;;;;;;4.93;1.80;;;19.20;99.90;;;;;;5012217;28;20049;-72
2023/07/25 10:24:22;;;;;;;3.45;2.15;;;19.20;99.90;;;;;;5012487;28;20037;-72
2023/07/25 10:26:59;;;;;;;4.72;1.58;;;19.30;99.90;;;;;;5013113;28;20058;-73
2023/07/25 10:29:58;;;;;;;3.28;1.85;;;19.30;99.90;;;;;;5004769;28;20157;-72
2023/07/25 10:32:43;;;;;;;3.35;1.73;;;19.30;99.90;;;;;;4996471;28;20112;-72
2023/07/25 10:35:08;;;;;;;4.43;1.70;;;19.40;99.90;;;;;;5008122;28;20045;-72
2023/07/25 10:37:40;;;;;;;3.42;1.88;;;19.20;99.90;;;;;;5011321;28;20046;-72
2023/07/25 10:40:12;;;;;;;1.88;1.60;;;19.10;99.90;;;;;;5013675;28;20042;-72
2023/07/25 10:42:43;;;;;;;5.00;1.70;;;19.00;99.90;;;;;;5006872;28;20540;-72
2023/07/25 10:45:27;;;;;;;4.78;1.70;;;18.90;99.90;;;;;;5012390;28;20068;-72
2023/07/25 10:47:53;;;;;;;4.78;1.60;;;18.80;99.90;;;;;;5009069;28;20055;-72
2023/07/25 10:50:20;;;;;;;6.88;1.90;;;19.00;99.90;;;;;;4994942;28;20125;-72
2023/07/25 10:52:46;;;;;;;5.55;1.70;;;18.90;99.90;;;;;;5008843;28;20037;-72
2023/07/25 10:55:12;;;;;;;3.17;1.50;;;18.90;99.90;;;;;;5009233;28;20054;-72
2023/07/25 10:57:38;;;;;;;5.90;1.70;;;18.70;99.90;;;;;;5013404;28;20041;-72
2023/07/25 11:00:08;;;;;;;4.00;1.77;;;18.60;99.90;;;;;;5010511;28;20078;-72
2023/07/25 11:02:40;;;;;;;5.07;1.70;;;18.80;99.90;;;;;;4999513;28;20053;-71
2023/07/25 11:05:12;;;;;;;4.00;2.28;;;18.70;99.90;;;;;;5006398;28;20038;-72
2023/07/25 11:07:56;;;;;;;5.20;1.90;;;18.50;99.90;;;;;;5013433;28;20125;-72
2023/07/25 11:10:28;;;;;;;2.15;1.52;;;18.50;99.90;;;;;;5011419;28;20042;-72
2023/07/25 11:12:59;;;;;;;3.97;1.90;;;18.00;99.90;;;;;;4995832;28;20057;-72
2023/07/25 11:15:26;;;;;;;4.53;1.95;;;17.80;99.90;;;;;;5010689;28;20050;-73
2023/07/25 11:17:52;;;;;;;3.22;2.05;;;;;;;;;;5013776;28;20042;-72
2023/07/25 11:20:19;;;;;;;2.83;1.45;;;;;;;;;;5012707;28;20093;-72
2023/07/25 11:22:48;;;;;;;3.90;2.00;;;;;;;;;;5010341;28;20049;-72
2023/07/25 11:25:15;;;;;;;2.83;1.60;;;;;;;;;;5008880;28;20050;-72
2023/07/25 11:27:44;;;;;;;1.88;1.77;;;;;;;;;;5011805;28;20537;-72
2023/07/25 11:30:17;;;;;;;2.55;1.63;;;;;;;;;;5012350;28;20073;-72
2023/07/25 11:32:53;;;;;;;4.60;2.25;;;17.90;99.90;;;;;;5011621;28;20730;-72
2023/07/25 11:35:19;;;;;;;2.08;1.60;;;18.60;99.90;;;;;;5011790;28;20112;-72
2023/07/25 11:37:47;;;;;;;4.55;1.80;;;18.30;99.90;;;;;;5012871;28;20042;-72
2023/07/25 11:40:14;;;;;;;3.20;1.95;;;18.60;99.90;;;;;;5010064;28;20045;-72
2023/07/25 11:42:42;;;;;;;4.60;1.90;;;18.60;99.90;;;;;;5011768;28;20125;-72
2023/07/25 11:45:13;;;;;;;4.82;1.83;;;18.60;99.90;;;;;;5013318;28;20061;-72
2023/07/25 11:47:41;;;;;;;1.95;1.52;;;18.90;99.90;;;;;;5011966;28;20470;-72
2023/07/25 11:50:08;;;;;;;4.10;1.83;;;18.90;99.90;;;;;;5011072;28;20490;-71
2023/07/25 11:52:34;;;;;;;2.58;1.75;;;19.10;99.90;;;;;;5012591;28;20091;-71
2023/07/25 11:55:02;;;;;;;2.55;1.65;;;19.20;99.90;;;;;;5010300;28;20045;-71
2023/07/25 11:57:28;;;;;;;2.92;1.70;;;19.20;99.90;;;;;;5011642;28;20073;-72
2023/07/25 11:59:54;;;;;;;6.45;1.90;;;19.30;99.90;;;;;;5011480;28;20498;-73
2023/07/25 12:02:20;;;;;;;3.83;1.75;;;19.20;99.90;;;;;;5010990;28;20537;-72
2023/07/25 12:04:46;;;;;;;3.85;1.73;;;19.30;99.90;;;;;;5011164;28;20073;-72
2023/07/25 12:07:13;;;;;;;3.08;1.80;;;19.20;99.90;;;;;;5000426;28;20042;-72
2023/07/25 12:09:39;;;;;;;2.55;1.50;;;19.20;99.90;;;;;;5002101;28;20489;-72
2023/07/25 12:12:12;;;;;;;1.60;1.50;;;19.40;99.90;;;;;;5009666;28;20046;-72
2023/07/25 12:14:37;;;;;;;3.00;1.92;;;19.50;99.90;;;;;;5024121;28;20861;-72
2023/07/25 12:17:03;;;;;;;3.80;1.73;;;19.50;99.90;;;;;;5009459;28;20144;-72
2023/07/25 12:19:32;;;;;;;3.38;2.05;;;19.50;99.90;;;;;;5008032;28;20133;-72
2023/07/25 12:22:05;;;;;;;3.05;2.00;;;19.70;99.90;;;;;;5011011;28;20065;-72
2023/07/25 12:24:40;;;;;;;5.88;2.10;;;19.80;99.90;;;;;;5012219;28;20453;-72
2023/07/25 12:27:15;;;;;;;4.80;1.92;;;;;;;;;;5009997;28;20056;-72
2023/07/25 12:29:41;;;;;;;4.18;1.80;;;20.40;99.90;;;;;;5006713;28;20084;-72
2023/07/25 12:32:06;;;;;;;5.43;2.17;;;20.20;99.90;;;;;;5010343;28;20042;-72
2023/07/25 12:34:32;;;;;;;5.85;2.30;;;;;;;;;;4992604;28;20042;-72
2023/07/25 12:37:03;;;;;;;4.80;1.83;;;;;;;;;;4992366;28;20050;-72
2023/07/25 12:39:29;;;;;;;3.75;1.92;;;;;;;;;;5001366;28;20481;-71
2023/07/25 12:41:55;;;;;;;5.72;2.30;;;20.20;99.90;;;;;;5007957;28;20048;-72
2023/07/25 12:44:21;;;;;;;4.93;1.80;;;20.20;99.90;;;;;;5009594;28;20149;-72
2023/07/25 12:46:47;;;;;;;3.38;1.73;;;20.20;99.90;;;;;;5011420;28;20040;-71
2023/07/25 12:49:13;;;;;;;6.30;1.83;;;20.30;99.90;;;;;;5008893;28;20045;-72
2023/07/25 12:51:38;;;;;;;5.70;1.77;;;20.60;99.90;;;;;;5026396;28;20046;-71
2023/07/25 12:54:04;;;;;;;6.18;2.00;;;20.70;99.90;;;;;;5009765;28;20497;-72
2023/07/25 12:56:30;;;;;;;4.18;1.98;;;20.70;99.90;;;;;;5009799;28;20397;-72
2023/07/25 12:58:55;;;;;;;4.60;1.85;;;20.60;99.90;;;;;;5009024;28;20049;-72
2023/07/25 13:01:22;;;;;;;3.88;1.75;;;;;;;;;;5011808;28;20060;-72
2023/07/25 13:03:48;;;;;;;4.65;2.05;;;;;;;;;;5007242;28;20048;-72
2023/07/25 13:06:14;;;;;;;2.50;1.70;;;;;;;;;;5008415;28;20112;-72
2023/07/25 13:08:39;;;;;;;3.20;2.10;;;20.60;99.90;;;;;;5009819;28;20041;-72
2023/07/25 13:11:05;;;;;;;7.97;2.30;;;20.50;99.90;;;;;;5006327;28;20466;-72
2023/07/25 13:13:31;;;;;;;6.78;2.40;;;20.40;99.90;;;;;;5003276;28;20064;-71
2023/07/25 13:15:57;;;;;;;2.15;1.75;;;20.20;99.90;;;;;;5009627;28;20042;-72
2023/07/25 13:18:22;;;;;;;8.98;2.40;;;20.00;99.90;;;;;;5009258;28;20042;-72
2023/07/25 13:20:51;;;;;;;5.38;2.45;;;19.70;99.90;;;;;;5009090;28;20505;-72
2023/07/25 13:23:16;;;;;;;5.32;2.85;;;19.30;99.90;;;;;;5010662;28;20042;-72
2023/07/25 13:25:44;;;;;;;5.20;2.28;;;19.10;99.90;;;;;;5008022;28;20042;-72
2023/07/25 13:28:10;;;;;;;3.47;2.30;;;18.90;99.90;;;;;;5008453;28;20049;-72
2023/07/25 13:30:36;;;;;;;5.20;2.00;;;18.90;99.90;;;;;;5010178;28;20046;-72
2023/07/25 13:33:04;;;;;;;4.07;2.00;;;18.70;99.90;;;;;;5008861;28;20100;-72
2023/07/25 13:35:29;;;;;;;4.82;2.20;;;18.60;99.90;;;;;;5010372;28;20452;-73
2023/07/25 13:37:55;;;;;;;3.63;1.60;;;18.70;99.90;;;;;;5003361;28;20484;-72
2023/07/25 13:40:21;;;;;;;3.10;2.00;;;19.10;99.90;;;;;;5007898;28;20050;-72
2023/07/25 13:42:47;;;;;;;4.38;2.47;;;19.20;99.90;;;;;;5009597;28;20077;-72
2023/07/25 13:45:12;;;;;;;3.38;2.17;;;19.50;99.90;;;;;;5010548;28;20366;-73
2023/07/25 13:47:38;;;;;;;4.53;2.10;;;19.40;99.90;;;;;;5011286;28;20103;-73
2023/07/25 13:50:04;;;;;;;6.25;2.20;;;19.50;99.90;;;;;;5008776;28;20044;-73
2023/07/25 13:52:30;;;;;;;2.65;1.92;;;19.20;99.90;;;;;;5011328;28;20501;-72
2023/07/25 13:54:56;;;;;;;3.42;2.03;;;19.40;99.90;;;;;;5012633;28;20045;-72
2023/07/25 13:57:22;;;;;;;3.47;2.20;;;19.20;99.90;;;;;;5011539;28;20045;-72
2023/07/25 13:59:48;;;;;;;3.10;1.88;;;19.50;99.90;;;;;;5013944;28;20129;-72